Concord Township, Ohio
Current Conditions -  °F | °C
As of 8:45 PM on Wednesday 17 Dec 2014 (Local Time) from KCGF Reporting Station
Light Snow Light Snow  
Wind Chill: 23°   Ceiling: 2400
Heat Index: 32°   Visibility: 7mi
Dew Point: 25°   Wind: 12mph
Humidity: 75%   Direction: 260°W
Pressure: 30.13"   Gusts: 21mph
Location:  41.6763°N, 81.3297°W
Report Text: KCGF 180145Z 26010G18KT 7SM -SN OVC024 00/M04 A3013
Loading
Personal Weather Stations






























Interactive Weather Map New forecast layout! Learn more

10-Day Weather Forecast

Advertisements
Track Severe Weather on mobile